Time;durP1;ratioP1;P1;durP2;ratioP2;P2;SDS_P1;SDS_P2;PMS_P1;PMS_P2;Temp;Humidity;BMP_temperature;BMP_pressure;BME280_temperature;BME280_humidity;BME280_pressure;Samples;Min_cycle;Max_cycle;Signal;HPM_P1;HPM_P2
2023/02/15 00:01:46;;;;;;;607.88;31.85;;;0.80;99.90;;;;;;4917965;28;20035;-66
2023/02/15 00:04:18;;;;;;;864.90;35.33;;;0.70;99.90;;;;;;4953206;28;20029;-67
2023/02/15 00:06:44;;;;;;;569.28;27.38;;;0.70;99.90;;;;;;4955956;28;20048;-75
2023/02/15 00:09:11;;;;;;;526.97;23.07;;;0.60;99.90;;;;;;4955536;28;20048;-67
2023/02/15 00:11:40;;;;;;;430.73;20.05;;;0.60;99.90;;;;;;4955728;28;20417;-66
2023/02/15 00:14:10;;;;;;;319.08;16.85;;;0.60;99.90;;;;;;4956769;28;24163;-67
2023/02/15 00:16:37;;;;;;;876.60;35.15;;;0.60;99.90;;;;;;4953391;28;20020;-71
2023/02/15 00:19:03;;;;;;;89.78;10.65;;;0.60;99.90;;;;;;4956995;28;20021;-67
2023/02/15 00:21:31;;;;;;;36.83;11.52;;;0.70;99.90;;;;;;4954494;28;23184;-74
2023/02/15 00:23:58;;;;;;;93.05;12.57;;;0.80;99.90;;;;;;4956117;28;20962;-68
2023/02/15 00:26:25;;;;;;;23.05;12.15;;;0.90;99.90;;;;;;4932194;28;20049;-69
2023/02/15 00:28:51;;;;;;;23.92;11.52;;;1.00;99.90;;;;;;4931706;28;20057;-67
2023/02/15 00:31:16;;;;;;;33.30;12.30;;;0.90;99.90;;;;;;4932372;28;20045;-67
2023/02/15 00:33:42;;;;;;;20.63;11.10;;;0.90;99.90;;;;;;4934683;28;20043;-67
2023/02/15 00:36:09;;;;;;;27.97;10.17;;;0.80;99.90;;;;;;4934970;28;21092;-74
2023/02/15 00:38:36;;;;;;;24.67;11.68;;;0.70;99.90;;;;;;4934904;28;20036;-67
2023/02/15 00:41:05;;;;;;;17.20;10.55;;;0.70;99.90;;;;;;4935276;28;21657;-66
2023/02/15 00:43:32;;;;;;;18.73;11.63;;;0.80;99.90;;;;;;4935325;28;20025;-75
2023/02/15 00:45:58;;;;;;;18.95;10.82;;;0.80;99.90;;;;;;4937313;28;20029;-70
2023/02/15 00:48:24;;;;;;;19.23;12.05;;;0.80;99.90;;;;;;4937418;28;20036;-67
2023/02/15 00:50:53;;;;;;;24.27;13.17;;;0.90;99.90;;;;;;4936480;28;20021;-66
2023/02/15 00:53:19;;;;;;;23.70;12.25;;;0.90;99.90;;;;;;4938450;28;20030;-74
2023/02/15 00:55:45;;;;;;;27.77;14.05;;;1.00;99.90;;;;;;4940070;28;20430;-67
2023/02/15 00:58:11;;;;;;;26.73;14.23;;;1.00;99.90;;;;;;4936868;28;20033;-72
2023/02/15 01:00:38;;;;;;;31.52;14.70;;;1.00;99.90;;;;;;4937152;28;20025;-73
2023/02/15 01:03:05;;;;;;;31.25;15.23;;;1.00;99.90;;;;;;4939512;28;20022;-67
2023/02/15 01:05:31;;;;;;;26.80;14.82;;;1.10;99.90;;;;;;4942560;28;20672;-67
2023/02/15 01:07:57;;;;;;;166.52;19.17;;;1.20;99.90;;;;;;4940462;28;21013;-74
2023/02/15 01:10:23;;;;;;;138.05;19.27;;;1.20;99.90;;;;;;4940348;28;23151;-65
2023/02/15 01:12:50;;;;;;;34.23;17.50;;;1.20;99.90;;;;;;4940546;28;20029;-67
2023/02/15 01:15:16;;;;;;;43.85;17.98;;;1.20;99.90;;;;;;4942381;28;23142;-67
2023/02/15 01:17:45;;;;;;;29.60;14.90;;;1.20;99.90;;;;;;4940209;28;20025;-67
2023/02/15 01:20:11;;;;;;;38.00;18.50;;;1.10;99.90;;;;;;4938484;28;20049;-66
2023/02/15 01:22:37;;;;;;;29.65;13.68;;;1.00;99.90;;;;;;4938085;28;20049;-67
2023/02/15 01:25:03;;;;;;;36.90;16.08;;;0.90;99.90;;;;;;4948874;28;20044;-66
2023/02/15 01:27:32;;;;;;;37.50;17.45;;;0.80;99.90;;;;;;4960852;28;20024;-66
2023/02/15 01:29:58;;;;;;;34.72;15.80;;;0.70;99.90;;;;;;4942315;28;20037;-71
2023/02/15 01:32:24;;;;;;;31.83;15.47;;;0.70;99.90;;;;;;4960370;28;20508;-67
2023/02/15 01:34:49;;;;;;;36.60;15.53;;;0.60;99.90;;;;;;4942669;28;20052;-75
2023/02/15 01:37:15;;;;;;;53.80;14.83;;;0.60;99.90;;;;;;4961574;28;20408;-66
2023/02/15 01:39:41;;;;;;;48.27;17.03;;;0.50;99.90;;;;;;4962239;28;20166;-74
2023/02/15 01:42:11;;;;;;;33.13;13.37;;;0.50;99.90;;;;;;4963088;28;20113;-66
2023/02/15 01:44:49;;;;;;;32.50;15.02;;;0.50;99.90;;;;;;4961617;28;20052;-66
2023/02/15 01:47:44;;;;;;;29.20;15.45;;;0.40;99.90;;;;;;4960051;28;20050;-69
2023/02/15 01:50:15;;;;;;;25.83;11.30;;;0.40;99.90;;;;;;4963381;28;20058;-66
2023/02/15 01:52:52;;;;;;;33.50;16.42;;;0.40;99.90;;;;;;4962170;28;20783;-68
2023/02/15 01:55:18;;;;;;;;;;;0.30;99.90;;;;;;4941735;28;20037;-67
2023/02/15 01:57:46;;;;;;;36.00;15.05;;;0.40;99.90;;;;;;4941356;28;19913;-65
2023/02/15 02:00:13;;;;;;;32.70;15.65;;;0.50;99.90;;;;;;4957795;28;20056;-68
2023/02/15 02:02:42;;;;;;;35.90;16.33;;;0.50;99.90;;;;;;4939794;28;20018;-66
2023/02/15 02:05:07;;;;;;;33.97;16.45;;;0.50;99.90;;;;;;4958709;28;20020;-72
2023/02/15 02:07:38;;;;;;;28.40;11.80;;;0.40;99.90;;;;;;4958657;28;20025;-73
2023/02/15 02:10:09;;;;;;;34.97;16.58;;;0.40;99.90;;;;;;4961030;28;20642;-66
2023/02/15 02:12:38;;;;;;;32.47;15.70;;;0.30;99.90;;;;;;4942750;28;20049;-66
2023/02/15 02:15:05;;;;;;;39.05;17.23;;;0.20;99.90;;;;;;4957226;28;20607;-73
2023/02/15 02:17:55;;;;;;;37.10;16.77;;;0.20;99.90;;;;;;4943011;28;20169;-66
2023/02/15 02:20:50;;;;;;;39.00;18.63;;;0.20;99.90;;;;;;4960869;28;20115;-75
2023/02/15 02:23:39;;;;;;;32.88;15.95;;;0.10;99.90;;;;;;4958788;28;20032;-67
2023/02/15 02:26:26;;;;;;;36.83;17.27;;;0.10;99.90;;;;;;4933066;28;20091;-67
2023/02/15 02:29:27;;;;;;;36.50;17.20;;;0.20;99.90;;;;;;4957368;28;20430;-67
2023/02/15 02:32:18;;;;;;;44.35;17.65;;;0.20;99.90;;;;;;4957274;28;20120;-67
2023/02/15 02:34:56;;;;;;;35.92;14.35;;;0.10;99.90;;;;;;4957344;28;20082;-66
2023/02/15 02:37:27;;;;;;;30.67;15.35;;;0.10;99.90;;;;;;4955735;28;20130;-66
2023/02/15 02:40:10;;;;;;;32.70;14.73;;;0.00;99.90;;;;;;4962401;28;20021;-66
2023/02/15 02:43:06;;;;;;;26.77;14.32;;;0.00;99.90;;;;;;4955085;28;21291;-68
2023/02/15 02:45:45;;;;;;;28.95;12.13;;;0.00;99.90;;;;;;4951145;28;20037;-75
2023/02/15 02:48:20;;;;;;;32.92;12.85;;;0.00;99.90;;;;;;4957213;28;20110;-67
2023/02/15 02:50:46;;;;;;;27.20;14.25;;;-0.10;99.90;;;;;;4956876;28;22039;-68
2023/02/15 02:53:12;;;;;;;27.83;14.63;;;-0.10;99.90;;;;;;4959596;28;20106;-66
2023/02/15 02:55:44;;;;;;;28.93;13.63;;;-0.10;99.90;;;;;;4957259;28;20029;-67
2023/02/15 02:58:20;;;;;;;34.65;13.13;;;-0.10;99.90;;;;;;4958191;28;20025;-66
2023/02/15 03:00:53;;;;;;;162.85;17.50;;;0.00;99.90;;;;;;4960360;28;20025;-66
2023/02/15 03:03:32;;;;;;;81.40;15.05;;;-0.10;99.90;;;;;;4957711;28;20560;-67
2023/02/15 03:06:03;;;;;;;42.05;14.02;;;-0.10;99.90;;;;;;4959605;28;20033;-66
2023/02/15 03:08:35;;;;;;;52.10;15.38;;;0.00;99.90;;;;;;4957935;28;20077;-67
2023/02/15 03:11:04;;;;;;;37.70;15.77;;;-0.10;99.90;;;;;;4957577;28;20071;-67
2023/02/15 03:13:31;;;;;;;121.85;16.02;;;-0.10;99.90;;;;;;4959371;28;20025;-65
2023/02/15 03:18:57;;;;;;;38.22;14.93;;;-0.20;99.90;;;;;;4957031;28;20106;-66
2023/02/15 03:21:32;;;;;;;27.98;14.30;;;-0.20;99.90;;;;;;4936654;28;20029;-74
2023/02/15 03:24:21;;;;;;;35.10;15.25;;;-0.20;99.90;;;;;;4939481;28;20029;-73
2023/02/15 03:26:51;;;;;;;69.32;17.48;;;-0.30;99.90;;;;;;4929108;28;20732;-67
2023/02/15 03:29:20;;;;;;;33.35;15.05;;;-0.40;99.90;;;;;;4927788;28;20552;-65
2023/02/15 03:31:51;;;;;;;27.75;15.02;;;-0.40;99.90;;;;;;4932964;28;20033;-74
2023/02/15 03:34:18;;;;;;;41.67;15.45;;;-0.40;99.90;;;;;;4928437;28;20048;-72
2023/02/15 03:36:56;;;;;;;107.63;15.93;;;-0.40;99.90;;;;;;4925980;28;20032;-67
2023/02/15 03:39:34;;;;;;;41.72;15.60;;;-0.30;99.90;;;;;;4931242;28;20029;-66
2023/02/15 03:42:09;;;;;;;24.58;12.75;;;-0.30;99.90;;;;;;4929488;28;20443;-66
2023/02/15 03:44:54;;;;;;;128.70;17.67;;;-0.20;99.90;;;;;;4928399;28;20502;-66
2023/02/15 03:47:26;;;;;;;30.90;13.50;;;0.00;99.90;;;;;;4930370;28;20025;-74
2023/02/15 03:50:03;;;;;;;34.65;14.13;;;0.30;99.90;;;;;;4928821;28;20029;-68
2023/02/15 03:52:31;;;;;;;81.85;16.85;;;0.40;99.90;;;;;;4930187;28;20025;-75
2023/02/15 03:54:57;;;;;;;94.22;16.13;;;0.40;99.90;;;;;;4924761;28;20037;-66
2023/02/15 04:03:22;;;;;;;;;;;0.30;99.90;;;;;;4928547;28;20084;-65
2023/02/15 04:05:48;;;;;;;226.95;19.30;;;0.40;99.90;;;;;;4925438;28;20072;-65
2023/02/15 04:08:14;;;;;;;180.67;19.80;;;0.50;99.90;;;;;;4929240;28;20025;-74
2023/02/15 04:10:52;;;;;;;177.67;19.70;;;0.60;99.90;;;;;;4925741;28;20036;-65
2023/02/15 04:13:19;;;;;;;162.80;18.15;;;0.60;99.90;;;;;;4928137;28;20026;-71
2023/02/15 04:16:03;;;;;;;208.55;19.65;;;0.50;99.90;;;;;;4927472;28;20041;-66
2023/02/15 04:27:08;;;;;;;74.15;14.60;;;0.40;99.90;;;;;;4953306;28;20044;-66
2023/02/15 04:29:34;;;;;;;39.37;13.17;;;0.40;99.90;;;;;;4936538;28;20038;-74
2023/02/15 04:32:01;;;;;;;36.07;16.90;;;0.30;99.90;;;;;;4954611;28;20036;-65
2023/02/15 04:34:27;;;;;;;40.95;17.85;;;0.30;99.90;;;;;;4953859;28;20119;-66
2023/02/15 04:36:53;;;;;;;46.37;17.67;;;0.40;99.90;;;;;;4952311;28;20021;-66
2023/02/15 04:39:19;;;;;;;48.13;16.70;;;0.50;99.90;;;;;;4956591;28;20025;-65
2023/02/15 04:41:45;;;;;;;58.17;17.80;;;0.60;99.90;;;;;;4936313;28;20825;-74
2023/02/15 04:44:11;;;;;;;45.67;14.65;;;0.60;99.90;;;;;;4953718;28;20288;-66
2023/02/15 04:46:37;;;;;;;191.55;24.27;;;0.50;99.90;;;;;;4954579;28;20029;-68
2023/02/15 04:49:03;;;;;;;141.93;17.80;;;0.30;99.90;;;;;;4936511;28;20059;-66
2023/02/15 04:51:29;;;;;;;44.40;18.85;;;0.00;99.90;;;;;;4956241;28;20631;-73
2023/02/15 04:53:56;;;;;;;26.57;13.03;;;-0.10;99.90;;;;;;4956175;28;20059;-67
2023/02/15 04:56:22;;;;;;;;;;;-0.20;99.90;;;;;;4937497;28;20764;-67
2023/02/15 04:58:48;;;;;;;36.80;16.48;;;-0.30;99.90;;;;;;4952729;28;23567;-70
2023/02/15 05:01:14;;;;;;;40.38;17.48;;;-0.40;99.90;;;;;;4955200;28;20029;-66
2023/02/15 05:03:40;;;;;;;33.38;15.75;;;-0.30;99.90;;;;;;4956248;28;20116;-66
2023/02/15 05:06:06;;;;;;;35.57;16.37;;;-0.20;99.90;;;;;;4956615;28;20032;-65
2023/02/15 05:08:32;;;;;;;66.53;17.43;;;-0.10;99.90;;;;;;4953296;28;20083;-74
2023/02/15 05:10:58;;;;;;;71.13;14.00;;;-0.10;99.90;;;;;;4955076;28;20037;-74
2023/02/15 05:13:24;;;;;;;195.15;19.77;;;0.00;99.90;;;;;;4955008;28;20971;-66
2023/02/15 05:15:51;;;;;;;53.28;14.40;;;0.20;99.90;;;;;;4938648;28;20045;-74
2023/02/15 05:18:19;;;;;;;36.58;15.38;;;0.30;99.90;;;;;;4955768;28;20157;-73
2023/02/15 05:20:45;;;;;;;46.90;18.63;;;0.40;99.90;;;;;;4956213;28;21550;-71
2023/02/15 05:23:11;;;;;;;44.77;17.67;;;0.40;99.90;;;;;;4955422;28;20632;-67
2023/02/15 05:28:23;;;;;;;52.03;18.52;;;0.50;99.90;;;;;;4955637;28;20686;-73
2023/02/15 05:30:50;;;;;;;82.03;18.08;;;0.30;99.90;;;;;;4958114;28;20422;-67
2023/02/15 05:33:16;;;;;;;59.25;18.88;;;0.40;99.90;;;;;;4954035;28;20025;-74
2023/02/15 05:35:42;;;;;;;69.38;15.05;;;0.40;99.90;;;;;;4956217;28;20036;-67
2023/02/15 05:38:08;;;;;;;81.60;17.77;;;0.40;99.90;;;;;;4939016;28;20028;-74
2023/02/15 05:40:34;;;;;;;75.73;16.87;;;0.40;99.90;;;;;;4959786;28;20289;-70
2023/02/15 05:43:00;;;;;;;56.08;19.02;;;0.40;99.90;;;;;;4958297;28;20281;-74
2023/02/15 05:45:26;;;;;;;43.07;18.23;;;0.40;99.90;;;;;;4953527;28;20044;-66
2023/02/15 05:47:52;;;;;;;49.63;18.60;;;0.50;99.90;;;;;;4953080;28;20163;-69
2023/02/15 05:50:18;;;;;;;40.63;18.37;;;0.50;99.90;;;;;;4955684;28;20116;-67
2023/02/15 05:52:43;;;;;;;62.80;19.83;;;0.60;99.90;;;;;;4942501;28;20061;-75
2023/02/15 05:55:09;;;;;;;45.53;18.13;;;0.50;99.90;;;;;;4961100;28;20037;-74
2023/02/15 05:57:35;;;;;;;42.67;17.50;;;0.40;99.90;;;;;;4944264;28;20031;-67
2023/02/15 06:00:04;;;;;;;83.32;17.35;;;0.30;99.90;;;;;;4942377;28;20143;-73
2023/02/15 06:02:34;;;;;;;44.70;17.98;;;0.20;99.90;;;;;;4957416;28;20112;-66
2023/02/15 06:04:59;;;;;;;40.88;18.13;;;0.10;99.90;;;;;;4940116;28;20426;-74
2023/02/15 06:07:25;;;;;;;41.43;17.23;;;0.10;99.90;;;;;;4957097;28;20108;-74
2023/02/15 06:09:50;;;;;;;44.43;18.93;;;0.20;99.90;;;;;;4960349;28;20375;-66
2023/02/15 06:12:16;;;;;;;41.23;18.03;;;0.40;99.90;;;;;;4958282;28;20067;-74
2023/02/15 06:14:42;;;;;;;42.93;18.43;;;0.50;99.90;;;;;;4959268;28;20037;-66
2023/02/15 06:17:07;;;;;;;46.63;18.93;;;0.60;99.90;;;;;;4960004;28;21100;-72
2023/02/15 06:19:33;;;;;;;47.80;19.53;;;0.50;99.90;;;;;;4959934;28;20157;-66
2023/02/15 06:21:59;;;;;;;40.70;17.73;;;0.60;99.90;;;;;;4958639;28;20110;-67
2023/02/15 06:24:24;;;;;;;48.33;18.53;;;0.60;99.90;;;;;;4957555;28;20044;-65
2023/02/15 06:26:50;;;;;;;47.07;19.07;;;0.60;99.90;;;;;;4957746;28;20052;-65
2023/02/15 06:29:16;;;;;;;44.17;17.93;;;0.50;99.90;;;;;;4958616;28;20029;-67
2023/02/15 06:31:42;;;;;;;45.43;17.53;;;0.40;99.90;;;;;;4940645;28;20024;-74
2023/02/15 06:34:07;;;;;;;50.17;18.83;;;0.40;99.90;;;;;;4959025;28;20064;-68
2023/02/15 06:36:33;;;;;;;42.30;16.93;;;0.40;99.90;;;;;;4957585;28;20016;-67
2023/02/15 06:38:59;;;;;;;49.13;18.27;;;0.50;99.90;;;;;;4972464;28;20128;-74
2023/02/15 06:41:25;;;;;;;35.83;17.03;;;0.50;99.90;;;;;;4959397;28;20028;-67
2023/02/15 06:43:51;;;;;;;40.77;17.27;;;0.60;99.90;;;;;;4960075;28;20028;-74
2023/02/15 06:46:16;;;;;;;40.07;17.83;;;0.60;99.90;;;;;;4958196;28;20656;-74
2023/02/15 06:48:42;;;;;;;25.97;11.87;;;0.70;99.90;;;;;;4962005;28;20029;-66
2023/02/15 06:51:08;;;;;;;35.73;15.63;;;0.70;99.90;;;;;;4961697;28;20024;-66
2023/02/15 06:53:33;;;;;;;24.47;10.77;;;0.70;99.90;;;;;;4942846;28;23676;-74
2023/02/15 06:56:06;;;;;;;51.47;16.97;;;0.70;99.90;;;;;;4957388;28;20117;-73
2023/02/15 06:58:39;;;;;;;57.25;16.88;;;0.70;99.90;;;;;;4942797;28;20107;-74
2023/02/15 07:01:05;;;;;;;44.00;16.55;;;0.60;99.90;;;;;;4956081;28;20149;-74
2023/02/15 07:03:32;;;;;;;49.15;17.88;;;0.50;99.90;;;;;;4958759;28;23569;-66
2023/02/15 07:06:00;;;;;;;55.65;18.38;;;0.50;99.90;;;;;;4941592;28;20081;-75
2023/02/15 07:08:27;;;;;;;40.70;18.48;;;0.40;99.90;;;;;;4941021;28;20020;-74
2023/02/15 07:10:54;;;;;;;43.13;19.95;;;0.30;99.90;;;;;;4961365;28;20028;-66
2023/02/15 07:13:20;;;;;;;37.78;16.85;;;0.50;99.90;;;;;;4961852;28;24023;-74
2023/02/15 07:15:47;;;;;;;46.22;16.17;;;0.40;99.90;;;;;;4957573;28;20033;-66
2023/02/15 07:18:13;;;;;;;42.65;17.75;;;0.40;99.90;;;;;;4953670;28;20229;-68
2023/02/15 07:20:41;;;;;;;43.70;18.53;;;0.40;99.90;;;;;;4946921;28;20025;-67
2023/02/15 07:23:08;;;;;;;48.65;18.88;;;0.50;99.90;;;;;;4946547;28;20028;-66
2023/02/15 07:25:34;;;;;;;45.15;17.67;;;0.50;99.90;;;;;;4936413;28;20036;-65
2023/02/15 07:28:04;;;;;;;35.47;12.90;;;0.60;99.90;;;;;;4955742;28;20029;-64
2023/02/15 07:30:30;;;;;;;47.42;18.42;;;0.70;99.90;;;;;;4955327;28;20880;-66
2023/02/15 07:35:57;;;;;;;47.03;20.45;;;0.90;99.90;;;;;;5042425;28;20079;-66
2023/02/15 07:38:24;;;;;;;58.58;23.95;;;1.10;99.90;;;;;;5047400;28;20021;-74
2023/02/15 07:40:50;;;;;;;56.50;25.00;;;1.40;99.90;;;;;;5046762;28;20394;-65
2023/02/15 07:43:16;;;;;;;72.20;29.23;;;1.60;99.90;;;;;;5051480;28;20021;-65
2023/02/15 07:45:42;;;;;;;52.53;21.63;;;1.90;99.90;;;;;;5047966;28;20057;-73
2023/02/15 07:48:08;;;;;;;72.90;33.50;;;2.00;99.90;;;;;;4934943;28;20419;-65
2023/02/15 07:50:34;;;;;;;69.50;31.27;;;2.00;99.90;;;;;;4939752;28;20029;-66
2023/02/15 07:53:03;;;;;;;65.68;30.20;;;1.90;99.90;;;;;;4938352;28;20080;-71
2023/02/15 07:55:29;;;;;;;110.10;49.60;;;1.90;99.90;;;;;;4944833;28;20033;-66
2023/02/15 07:57:55;;;;;;;84.70;40.47;;;1.90;99.90;;;;;;4918670;28;20074;-64
2023/02/15 08:00:24;;;;;;;104.73;54.93;;;2.00;99.90;;;;;;4937849;28;20032;-67
2023/02/15 08:05:44;;;;;;;71.53;31.77;;;2.30;99.90;;;;;;4936079;28;20126;-74
2023/02/15 08:08:29;;;;;;;81.68;35.75;;;2.60;99.90;;;;;;4939882;28;20426;-72
2023/02/15 08:13:54;;;;;;;79.18;37.90;;;2.70;99.90;;;;;;4940234;28;20031;-70
2023/02/15 08:16:25;;;;;;;71.57;31.50;;;2.80;99.90;;;;;;4918151;28;20031;-74
2023/02/15 08:18:52;;;;;;;76.32;33.53;;;2.90;99.90;;;;;;4921705;28;20773;-67
2023/02/15 08:21:19;;;;;;;67.35;37.42;;;2.80;99.90;;;;;;4938187;28;20029;-69
2023/02/15 08:23:45;;;;;;;80.97;38.65;;;2.90;99.90;;;;;;4939707;28;20036;-66
2023/02/15 08:26:11;;;;;;;71.80;32.10;;;2.90;99.90;;;;;;4939469;28;20044;-69
2023/02/15 08:28:36;;;;;;;76.20;33.30;;;3.00;99.90;;;;;;4922521;28;20043;-73
2023/02/15 08:31:07;;;;;;;53.37;22.80;;;3.10;99.90;;;;;;4938089;28;20777;-69
2023/02/15 08:33:33;;;;;;;60.10;27.60;;;3.20;99.90;;;;;;4923377;28;20976;-66
2023/02/15 08:36:04;;;;;;;71.80;29.47;;;3.30;99.90;;;;;;4937007;28;20060;-68
2023/02/15 08:38:29;;;;;;;77.10;29.20;;;3.30;99.90;;;;;;4938269;28;20037;-65
2023/02/15 08:40:55;;;;;;;69.77;29.77;;;3.40;99.90;;;;;;4918532;28;20051;-74
2023/02/15 08:43:21;;;;;;;63.20;26.87;;;3.40;99.90;;;;;;4938652;28;20049;-65
2023/02/15 08:45:46;;;;;;;81.27;31.37;;;3.50;99.90;;;;;;4937278;28;23761;-66
2023/02/15 08:48:12;;;;;;;82.63;32.83;;;3.50;99.90;;;;;;4936552;28;20048;-66
2023/02/15 08:50:37;;;;;;;77.27;30.67;;;3.60;99.90;;;;;;4935995;28;20039;-66
2023/02/15 08:53:03;;;;;;;72.77;30.53;;;3.70;99.90;;;;;;4935086;28;20031;-72
2023/02/15 08:55:29;;;;;;;81.63;35.10;;;3.90;99.90;;;;;;4915577;28;20032;-66
2023/02/15 08:57:55;;;;;;;76.17;30.77;;;4.20;99.90;;;;;;4936188;28;21121;-66
2023/02/15 09:00:24;;;;;;;74.80;29.57;;;4.60;99.90;;;;;;4934629;28;20687;-66
2023/02/15 09:02:50;;;;;;;75.65;28.83;;;5.30;99.90;;;;;;4916575;28;20032;-74
2023/02/15 09:05:16;;;;;;;72.57;31.03;;;5.70;99.90;;;;;;4924314;28;20875;-67
2023/02/15 09:07:42;;;;;;;63.20;27.03;;;5.80;99.90;;;;;;4933867;28;20028;-66
2023/02/15 09:10:07;;;;;;;68.50;26.67;;;5.70;99.90;;;;;;4937936;28;20029;-73
2023/02/15 09:12:33;;;;;;;72.07;31.20;;;5.50;99.90;;;;;;4934838;28;20032;-73
2023/02/15 09:14:59;;;;;;;40.57;19.33;;;5.40;99.90;;;;;;4938777;28;20049;-66
2023/02/15 09:17:25;;;;;;;62.50;25.77;;;5.40;99.90;;;;;;4936177;28;20063;-66
2023/02/15 09:19:50;;;;;;;56.83;25.83;;;5.40;99.90;;;;;;4938189;28;20890;-66
2023/02/15 09:22:16;;;;;;;46.27;18.97;;;5.40;99.90;;;;;;4936948;28;20127;-66
2023/02/15 09:24:42;;;;;;;61.63;25.37;;;5.40;99.90;;;;;;4943044;28;20051;-73
2023/02/15 09:27:07;;;;;;;60.57;27.53;;;5.60;99.90;;;;;;4971423;28;20082;-72
2023/02/15 09:29:33;;;;;;;57.73;25.97;;;6.20;99.90;;;;;;5054909;28;20075;-75
2023/02/15 09:31:59;;;;;;;40.90;19.43;;;6.60;99.90;;;;;;5037609;28;20052;-75
2023/02/15 09:34:24;;;;;;;58.20;25.23;;;6.90;99.90;;;;;;5048302;28;20383;-74
2023/02/15 09:36:51;;;;;;;53.13;26.90;;;7.20;99.90;;;;;;5038481;28;20041;-74
2023/02/15 09:39:26;;;;;;;54.45;25.65;;;7.20;99.90;;;;;;5040970;28;20032;-73
2023/02/15 09:42:19;;;;;;;53.75;23.95;;;7.20;99.90;;;;;;5026790;28;20033;-74
2023/02/15 09:45:22;;;;;;;56.08;25.42;;;7.40;99.90;;;;;;5044392;28;20041;-74
2023/02/15 09:48:00;;;;;;;53.03;23.13;;;7.40;99.90;;;;;;5047109;28;20358;-75
2023/02/15 09:50:53;;;;;;;55.33;23.50;;;7.40;99.90;;;;;;5042803;28;20025;-74
2023/02/15 09:53:29;;;;;;;54.72;24.35;;;7.70;99.90;;;;;;5046029;28;20422;-74
2023/02/15 09:56:01;;;;;;;50.10;24.98;;;8.10;99.90;;;;;;5035377;28;20037;-67
2023/02/15 09:58:35;;;;;;;50.90;23.27;;;8.30;99.90;;;;;;4996918;28;20037;-74
2023/02/15 10:01:28;;;;;;;57.33;32.28;;;8.50;99.90;;;;;;4944380;28;20846;-73
2023/02/15 10:04:03;;;;;;;56.75;25.20;;;8.60;99.90;;;;;;4924436;28;20423;-74
2023/02/15 10:06:32;;;;;;;49.22;24.63;;;8.80;99.90;;;;;;4944639;28;20025;-75
2023/02/15 10:09:21;;;;;;;60.95;29.85;;;8.80;99.90;;;;;;4965655;28;20020;-66
2023/02/15 10:12:31;;;;;;;52.47;25.55;;;8.90;99.90;;;;;;4950274;28;21426;-70
2023/02/15 10:15:06;;;;;;;49.75;23.73;;;9.00;99.90;;;;;;4949732;28;20122;-74
2023/02/15 10:17:50;;;;;;;57.13;24.80;;;9.20;99.90;;;;;;4981430;28;20021;-75
2023/02/15 10:20:34;;;;;;;52.22;23.45;;;9.30;99.90;;;;;;5034260;28;20270;-75
2023/02/15 10:23:16;;;;;;;47.63;24.25;;;9.30;99.90;;;;;;4943997;28;20117;-67
2023/02/15 10:25:51;;;;;;;49.78;23.67;;;9.40;99.90;;;;;;4921184;28;20063;-73
2023/02/15 10:28:28;;;;;;;50.83;23.33;;;9.40;99.90;;;;;;4919950;28;20822;-70
2023/02/15 10:31:06;;;;;;;51.60;24.10;;;9.30;99.90;;;;;;4947695;28;20053;-67
2023/02/15 10:33:42;;;;;;;50.58;23.67;;;9.40;99.90;;;;;;4921348;28;20117;-67
2023/02/15 10:36:29;;;;;;;65.55;29.08;;;9.20;99.90;;;;;;4921703;28;20068;-66
2023/02/15 10:39:21;;;;;;;60.60;25.23;;;9.20;99.90;;;;;;4924891;28;20026;-66
2023/02/15 10:42:20;;;;;;;54.75;25.88;;;9.10;99.90;;;;;;4922130;28;20047;-67
2023/02/15 10:45:05;;;;;;;95.40;42.83;;;8.90;99.90;;;;;;4899311;28;20706;-67
2023/02/15 10:47:59;;;;;;;62.58;30.48;;;8.90;99.90;;;;;;4921598;28;20033;-67
2023/02/15 10:50:33;;;;;;;78.75;36.55;;;8.90;99.90;;;;;;4920384;28;24145;-67
2023/02/15 10:53:07;;;;;;;62.88;28.52;;;8.90;99.90;;;;;;4922424;28;20040;-73
2023/02/15 10:56:10;;;;;;;55.47;23.48;;;8.90;99.90;;;;;;4920235;28;20029;-68
2023/02/15 10:58:56;;;;;;;46.88;24.63;;;8.80;99.90;;;;;;4941657;28;20025;-72
2023/02/15 11:01:41;;;;;;;49.08;23.42;;;8.80;99.90;;;;;;4930580;28;23529;-66
2023/02/15 11:04:31;;;;;;;65.15;30.33;;;9.00;99.90;;;;;;4922812;28;21666;-76
2023/02/15 11:07:02;;;;;;;50.05;23.52;;;9.00;99.90;;;;;;4920885;28;20120;-76
2023/02/15 11:09:38;;;;;;;44.55;22.55;;;9.10;99.90;;;;;;4921819;28;20049;-67
2023/02/15 11:12:12;;;;;;;49.77;21.80;;;9.20;99.90;;;;;;4923149;28;20024;-73
2023/02/15 11:14:46;;;;;;;52.50;22.60;;;9.20;99.90;;;;;;4921609;28;20289;-67
2023/02/15 11:17:20;;;;;;;48.53;21.98;;;9.30;99.90;;;;;;4922206;28;20072;-66
2023/02/15 11:19:55;;;;;;;52.55;23.27;;;9.30;99.90;;;;;;4917687;28;20029;-72
2023/02/15 11:22:22;;;;;;;49.00;22.25;;;9.40;99.90;;;;;;4917453;28;20027;-68
2023/02/15 11:24:48;;;;;;;42.45;20.35;;;9.50;99.90;;;;;;4917232;28;20057;-75
2023/02/15 11:27:21;;;;;;;47.50;22.27;;;9.50;99.90;;;;;;4933729;28;20100;-67
2023/02/15 11:30:10;;;;;;;49.58;22.17;;;9.50;99.90;;;;;;4918893;28;20036;-66
2023/02/15 11:32:40;;;;;;;49.17;22.48;;;9.60;99.90;;;;;;4918038;28;20084;-67
2023/02/15 11:35:12;;;;;;;70.70;29.35;;;9.70;99.90;;;;;;4915847;28;21446;-71
2023/02/15 11:37:58;;;;;;;51.47;22.85;;;9.90;99.90;;;;;;4922224;28;21538;-72
2023/02/15 11:40:47;;;;;;;50.47;22.13;;;10.10;99.90;;;;;;4922118;28;20094;-79
2023/02/15 11:43:35;;;;;;;51.63;24.25;;;10.20;99.90;;;;;;4921701;28;20035;-70
2023/02/15 11:46:01;;;;;;;54.80;23.90;;;10.20;99.90;;;;;;4921375;28;20693;-68
2023/02/15 11:48:31;;;;;;;55.70;24.38;;;10.30;99.90;;;;;;4920928;28;20061;-68
2023/02/15 11:50:57;;;;;;;76.30;32.25;;;10.40;99.90;;;;;;4917542;28;20029;-71
2023/02/15 11:53:27;;;;;;;50.78;23.75;;;10.50;99.90;;;;;;4921335;28;20096;-76
2023/02/15 11:55:54;;;;;;;54.72;24.67;;;10.50;99.90;;;;;;4918620;28;20439;-75
2023/02/15 11:58:41;;;;;;;54.95;24.73;;;10.50;99.90;;;;;;4923988;28;20025;-76
2023/02/15 12:01:11;;;;;;;;;;;10.40;99.90;;;;;;4919559;28;20124;-67
2023/02/15 12:03:52;;;;;;;56.60;24.30;;;10.40;99.90;;;;;;4917714;28;19913;-70
2023/02/15 12:06:28;;;;;;;53.67;23.92;;;10.50;99.90;;;;;;4919370;28;20021;-73
2023/02/15 12:09:14;;;;;;;46.72;22.42;;;10.50;99.90;;;;;;4959950;28;20064;-77
2023/02/15 12:11:40;;;;;;;48.78;23.10;;;10.70;99.90;;;;;;5033101;28;20203;-75
2023/02/15 12:14:11;;;;;;;;;;;10.70;99.90;;;;;;5023160;28;20053;-77
2023/02/15 12:16:44;;;;;;;51.78;23.17;;;10.80;99.90;;;;;;5021777;28;19913;-78
2023/02/15 12:19:39;;;;;;;44.70;23.67;;;10.90;99.90;;;;;;5026370;28;20077;-78
2023/02/15 12:22:06;;;;;;;50.57;23.13;;;10.80;99.90;;;;;;5027947;28;20026;-77
2023/02/15 12:24:43;;;;;;;;;;;10.70;99.90;;;;;;5022301;28;20045;-77
2023/02/15 12:27:42;;;;;;;52.50;23.08;;;10.70;99.90;;;;;;5041150;28;19909;-77
2023/02/15 12:30:21;;;;;;;50.90;23.67;;;10.70;99.90;;;;;;5041822;28;20427;-76
2023/02/15 12:32:54;;;;;;;53.72;25.73;;;10.70;99.90;;;;;;5046297;28;20104;-69
2023/02/15 12:35:49;;;;;;;53.53;23.88;;;10.80;99.90;;;;;;5030422;28;20025;-77
2023/02/15 12:38:15;;;;;;;53.97;25.25;;;10.90;99.90;;;;;;5034920;28;20500;-67
2023/02/15 12:40:41;;;;;;;48.73;23.87;;;11.00;99.90;;;;;;4958821;28;20041;-78
2023/02/15 12:43:28;;;;;;;54.20;25.00;;;11.10;99.90;;;;;;4938330;28;20029;-72
2023/02/15 12:46:19;;;;;;;50.88;24.00;;;11.40;99.90;;;;;;4938461;28;20053;-72
2023/02/15 12:48:45;;;;;;;54.85;23.77;;;11.70;99.90;;;;;;4938089;28;20032;-66
2023/02/15 12:51:15;;;;;;;50.50;24.35;;;11.90;99.90;;;;;;4939171;28;20047;-67
2023/02/15 12:53:41;;;;;;;50.42;25.20;;;12.00;99.90;;;;;;4945193;28;20880;-67
2023/02/15 12:56:09;;;;;;;50.72;24.67;;;12.20;99.90;;;;;;4944936;28;20155;-67
2023/02/15 12:58:42;;;;;;;45.63;23.50;;;12.20;99.90;;;;;;4948625;28;20094;-66
2023/02/15 13:01:25;;;;;;;57.70;26.45;;;12.30;99.90;;;;;;4946353;28;20029;-68
2023/02/15 13:04:05;;;;;;;47.42;24.05;;;12.20;99.90;;;;;;4942758;28;20043;-75
2023/02/15 13:06:34;;;;;;;47.55;24.83;;;12.10;99.90;;;;;;4944419;28;20047;-68
2023/02/15 13:09:32;;;;;;;49.15;24.45;;;12.00;99.90;;;;;;4925858;28;20747;-68
2023/02/15 13:12:33;;;;;;;52.20;26.23;;;11.80;99.90;;;;;;4888836;28;20042;-69
2023/02/15 13:15:02;;;;;;;52.22;25.75;;;11.60;99.90;;;;;;4862237;28;20841;-66
2023/02/15 13:17:31;;;;;;;53.05;25.38;;;11.40;99.90;;;;;;4862416;28;20312;-71
2023/02/15 13:20:17;;;;;;;55.90;26.67;;;11.30;99.90;;;;;;4875402;28;20078;-72
2023/02/15 13:22:46;;;;;;;54.78;25.50;;;11.20;99.90;;;;;;4860002;28;20042;-66
2023/02/15 13:25:19;;;;;;;53.35;27.13;;;11.10;99.90;;;;;;4878508;28;20042;-66
2023/02/15 13:27:48;;;;;;;53.38;26.52;;;11.10;99.90;;;;;;4879665;28;20618;-72